createdAt,value
2017-11-03T00:01:48.915Z,7.57
2017-11-03T00:04:22.231Z,7.47
2017-11-03T00:06:56.291Z,6.40
2017-11-03T00:09:29.607Z,7.77
2017-11-03T00:12:02.050Z,8.43
2017-11-03T00:14:34.475Z,5.90
2017-11-03T00:17:06.926Z,5.30
2017-11-03T00:19:40.237Z,6.10
2017-11-03T00:22:13.526Z,8.53
2017-11-03T00:24:46.769Z,6.30
2017-11-03T00:27:19.100Z,5.67
2017-11-03T00:29:52.354Z,5.90
2017-11-03T00:32:24.742Z,7.03
2017-11-03T00:34:57.127Z,8.10
2017-11-03T00:37:30.373Z,8.47
2017-11-03T00:40:04.506Z,6.13
2017-11-03T00:42:37.001Z,8.93
2017-11-03T00:45:11.069Z,5.83
2017-11-03T00:47:43.658Z,8.50
2017-11-03T00:50:16.760Z,8.97
2017-11-03T00:52:49.100Z,8.23
2017-11-03T00:55:21.493Z,7.87
2017-11-03T00:57:54.820Z,7.97
2017-11-03T01:00:27.315Z,8.70
2017-11-03T01:03:00.541Z,8.00
2017-11-03T01:05:33.870Z,9.77
2017-11-03T01:08:07.135Z,11.20
2017-11-03T01:10:40.392Z,8.07
2017-11-03T01:13:14.290Z,8.17
2017-11-03T01:15:47.487Z,7.50
2017-11-03T01:18:20.078Z,8.50
2017-11-03T01:20:52.649Z,9.27
2017-11-03T01:23:25.872Z,9.77
2017-11-03T01:25:58.272Z,12.47
2017-11-03T01:28:32.308Z,9.07
2017-11-03T01:31:05.672Z,11.80
2017-11-03T01:33:38.187Z,9.77
2017-11-03T01:36:11.512Z,9.80
2017-11-03T01:38:45.509Z,9.80
2017-11-03T01:41:17.960Z,9.63
2017-11-03T01:43:51.257Z,10.67
2017-11-03T01:46:24.529Z,10.60
2017-11-03T01:48:57.741Z,12.60
2017-11-03T01:51:30.929Z,10.97
2017-11-03T01:54:04.176Z,9.43
2017-11-03T01:56:36.631Z,12.93
2017-11-03T01:59:09.147Z,10.30
2017-11-03T02:01:42.464Z,11.33
2017-11-03T02:04:15.691Z,12.87
2017-11-03T02:06:48.332Z,10.90
2017-11-03T02:09:21.626Z,11.50
2017-11-03T02:11:54.778Z,13.00
2017-11-03T02:14:27.255Z,10.47
2017-11-03T02:17:00.609Z,16.47
2017-11-03T02:19:33.902Z,12.90
2017-11-03T02:22:06.314Z,13.87
2017-11-03T02:24:39.639Z,11.23
2017-11-03T02:27:12.977Z,12.70
2017-11-03T02:29:46.298Z,14.00
2017-11-03T02:32:19.630Z,13.47
2017-11-03T02:34:52.063Z,13.40
2017-11-03T02:37:24.627Z,15.67
2017-11-03T02:39:57.855Z,14.90
2017-11-03T02:42:31.276Z,15.13
2017-11-03T02:45:04.554Z,15.77
2017-11-03T02:47:44.813Z,16.63
2017-11-03T02:50:18.149Z,13.00
2017-11-03T02:52:51.512Z,12.60
2017-11-03T02:55:23.938Z,17.53
2017-11-03T02:57:57.251Z,17.43
2017-11-03T03:00:31.291Z,13.23
2017-11-03T03:03:04.632Z,14.90
2017-11-03T03:05:37.311Z,16.93
2017-11-03T03:08:11.222Z,16.97
2017-11-03T03:10:43.873Z,13.43
2017-11-03T03:13:17.361Z,17.63
2017-11-03T03:15:50.665Z,16.60
2017-11-03T03:18:23.901Z,13.50
2017-11-03T03:20:57.446Z,14.50
2017-11-03T03:23:30.392Z,14.13
2017-11-03T03:26:03.642Z,16.07
2017-11-03T03:28:36.972Z,15.57
2017-11-03T03:31:11.093Z,14.40
2017-11-03T03:33:43.798Z,14.57
2017-11-03T03:36:17.121Z,14.40
2017-11-03T03:38:50.540Z,14.80
2017-11-03T03:41:23.816Z,13.13
2017-11-03T03:43:57.152Z,10.20
2017-11-03T03:46:31.167Z,10.90
2017-11-03T03:49:03.772Z,14.53
2017-11-03T03:51:37.033Z,12.80
2017-11-03T03:54:09.437Z,14.30
2017-11-03T03:56:42.700Z,14.33
2017-11-03T03:59:15.182Z,15.53
2017-11-03T04:01:48.385Z,14.73
2017-11-03T04:04:21.558Z,12.80
2017-11-03T04:06:54.094Z,17.17
2017-11-03T04:09:27.352Z,14.83
2017-11-03T04:12:00.605Z,14.67
2017-11-03T04:14:33.862Z,13.93
2017-11-03T04:17:07.892Z,13.37
2017-11-03T04:19:40.468Z,13.13
2017-11-03T04:22:20.441Z,12.30
2017-11-03T04:24:52.938Z,14.20
2017-11-03T04:27:26.309Z,17.43
2017-11-03T04:29:59.642Z,15.20
2017-11-03T04:32:32.999Z,13.40
2017-11-03T04:35:06.173Z,13.50
2017-11-03T04:37:39.470Z,14.03
2017-11-03T04:40:13.503Z,15.77
2017-11-03T04:42:46.152Z,11.67
2017-11-03T04:45:19.179Z,12.90
2017-11-03T04:47:52.482Z,13.80
2017-11-03T04:50:25.749Z,14.43
2017-11-03T04:52:59.041Z,12.87
2017-11-03T04:55:32.336Z,10.87
2017-11-03T04:58:05.356Z,11.33
2017-11-03T05:00:38.541Z,11.17
2017-11-03T05:03:12.556Z,11.60
2017-11-03T05:05:45.228Z,14.03
2017-11-03T05:08:18.526Z,13.87
2017-11-03T05:10:50.889Z,10.80
2017-11-03T05:13:24.908Z,11.80
2017-11-03T05:15:57.395Z,11.10
2017-11-03T05:18:30.636Z,10.00
2017-11-03T05:21:03.075Z,7.20
2017-11-03T05:23:36.379Z,12.67
2017-11-03T05:26:09.650Z,12.07
2017-11-03T05:28:42.855Z,12.47
2017-11-03T05:31:16.124Z,9.50
2017-11-03T05:33:48.475Z,11.30
2017-11-03T05:36:21.811Z,9.70
2017-11-03T05:38:55.126Z,11.47
2017-11-03T05:41:28.426Z,11.20
2017-11-03T05:44:00.836Z,10.73
2017-11-03T05:46:34.865Z,8.80
2017-11-03T05:49:07.833Z,8.70
2017-11-03T05:51:40.877Z,10.10
2017-11-03T05:54:13.300Z,10.43
2017-11-03T05:56:45.760Z,10.00
2017-11-03T05:59:19.752Z,11.90
2017-11-03T06:01:52.217Z,10.53
2017-11-03T06:04:24.673Z,8.63
2017-11-03T06:06:58.058Z,11.30
2017-11-03T06:09:31.294Z,11.10
2017-11-03T06:12:03.692Z,10.63
2017-11-03T06:14:37.705Z,11.00
2017-11-03T06:17:10.312Z,9.57
2017-11-03T06:19:43.565Z,12.27
2017-11-03T06:22:16.035Z,8.80
2017-11-03T06:24:49.317Z,12.00
2017-11-03T06:27:21.720Z,13.50
2017-11-03T06:29:54.971Z,10.83
2017-11-03T06:32:28.243Z,10.73
2017-11-03T06:35:01.446Z,11.70
2017-11-03T06:37:35.714Z,10.57
2017-11-03T06:40:08.184Z,14.13
2017-11-03T06:42:41.468Z,15.57
2017-11-03T06:45:14.679Z,12.53
2017-11-03T06:47:48.037Z,12.50
2017-11-03T06:50:21.276Z,12.03
2017-11-03T06:52:54.611Z,12.37
2017-11-03T06:55:27.028Z,13.13
2017-11-03T06:58:00.357Z,15.93
2017-11-03T07:00:33.679Z,15.13
2017-11-03T07:03:06.193Z,10.60
2017-11-03T07:05:40.151Z,14.60
2017-11-03T07:08:13.379Z,11.43
2017-11-03T07:10:46.140Z,10.53
2017-11-03T07:13:20.239Z,12.10
2017-11-03T07:15:53.615Z,14.00
2017-11-03T07:18:26.138Z,13.00
2017-11-03T07:20:59.538Z,12.30
2017-11-03T07:23:32.829Z,10.40
2017-11-03T07:26:06.109Z,12.03
2017-11-03T07:28:39.692Z,11.00
2017-11-03T07:31:12.765Z,11.20
2017-11-03T07:33:45.283Z,10.00
2017-11-03T07:36:18.521Z,12.63
2017-11-03T07:38:52.525Z,10.27
2017-11-03T07:41:25.317Z,13.90
2017-11-03T07:43:58.425Z,13.43
2017-11-03T07:46:31.664Z,16.90
2017-11-03T07:49:04.155Z,11.17
2017-11-03T07:51:37.375Z,14.60
2017-11-03T07:54:09.756Z,15.80
2017-11-03T07:56:43.100Z,14.10
2017-11-03T07:59:15.625Z,11.83
2017-11-03T08:01:48.866Z,9.37
2017-11-03T08:04:22.052Z,13.50
2017-11-03T08:06:55.314Z,12.77
2017-11-03T08:09:29.241Z,12.00
2017-11-03T08:12:01.741Z,13.73
2017-11-03T08:14:35.013Z,11.20
2017-11-03T08:17:07.370Z,13.37
2017-11-03T08:19:40.652Z,9.10
2017-11-03T08:22:13.899Z,12.33
2017-11-03T08:24:47.346Z,11.37
2017-11-03T08:27:20.560Z,12.53
2017-11-03T08:29:53.933Z,11.80
2017-11-03T08:32:27.148Z,11.90
2017-11-03T08:35:00.432Z,13.13
2017-11-03T08:37:32.820Z,12.30
2017-11-03T08:40:06.170Z,11.77
2017-11-03T08:42:38.607Z,12.43
2017-11-03T08:45:10.953Z,15.13
2017-11-03T08:47:43.257Z,10.27
2017-11-03T08:50:16.614Z,14.40
2017-11-03T08:52:49.915Z,12.90
2017-11-03T08:55:23.102Z,12.90
2017-11-03T08:57:56.331Z,9.83
2017-11-03T09:00:29.751Z,12.40
2017-11-03T09:03:02.939Z,13.23
2017-11-03T09:05:36.768Z,13.17
2017-11-03T09:08:10.089Z,14.87
2017-11-03T09:10:43.339Z,12.97
2017-11-03T09:13:16.547Z,12.37
2017-11-03T09:15:49.991Z,12.87
2017-11-03T09:18:23.879Z,12.13
2017-11-03T09:20:57.074Z,10.70
2017-11-03T09:23:29.791Z,14.33
2017-11-03T09:26:03.001Z,9.77
2017-11-03T09:28:37.045Z,15.30
2017-11-03T09:31:09.759Z,19.17
2017-11-03T09:33:43.027Z,14.83
2017-11-03T09:36:17.144Z,11.50
2017-11-03T09:38:49.664Z,12.40
2017-11-03T09:41:22.934Z,9.60
2017-11-03T09:43:55.437Z,14.10
2017-11-03T09:46:28.772Z,12.63
2017-11-03T09:49:02.065Z,13.80
2017-11-03T09:51:34.463Z,12.40
2017-11-03T09:54:07.748Z,12.73
2017-11-03T09:56:41.123Z,14.07
2017-11-03T09:59:15.061Z,12.37
2017-11-03T10:01:48.446Z,12.33
2017-11-03T10:04:20.948Z,13.40
2017-11-03T10:06:53.855Z,11.30
2017-11-03T10:09:26.751Z,12.50
2017-11-03T10:11:59.166Z,10.80
2017-11-03T10:14:33.212Z,12.57
2017-11-03T10:17:05.810Z,17.70
2017-11-03T10:19:39.768Z,14.20
2017-11-03T10:22:13.128Z,11.17
2017-11-03T10:24:46.445Z,13.20
2017-11-03T10:27:18.956Z,13.30
2017-11-03T10:29:51.381Z,17.20
2017-11-03T10:32:23.884Z,12.37
2017-11-03T10:34:57.909Z,10.90
2017-11-03T10:37:30.636Z,15.23
2017-11-03T10:40:04.479Z,12.57
2017-11-03T10:42:38.080Z,13.97
2017-11-03T10:45:10.579Z,11.57
2017-11-03T10:47:43.889Z,13.83
2017-11-03T10:50:17.221Z,12.13
2017-11-03T10:52:49.652Z,12.10
2017-11-03T10:55:23.036Z,13.57
2017-11-03T10:57:55.562Z,12.27
2017-11-03T11:00:28.928Z,14.10
2017-11-03T11:03:01.315Z,14.10
2017-11-03T11:05:34.610Z,9.50
2017-11-03T11:08:07.986Z,15.67
2017-11-03T11:10:41.198Z,15.07
2017-11-03T11:13:14.603Z,17.20
2017-11-03T11:15:47.668Z,12.37
2017-11-03T11:18:20.966Z,12.03
2017-11-03T11:20:55.005Z,19.43
2017-11-03T11:23:27.606Z,11.80
2017-11-03T11:26:00.082Z,10.73
2017-11-03T11:28:33.417Z,13.57
2017-11-03T11:31:06.572Z,16.10
2017-11-03T11:33:39.085Z,17.73
2017-11-03T11:36:12.478Z,12.53
2017-11-03T11:38:44.957Z,8.90
2017-11-03T11:41:18.201Z,11.47
2017-11-03T11:43:50.939Z,12.20
2017-11-03T11:46:24.253Z,13.40
2017-11-03T11:48:57.650Z,12.93
2017-11-03T11:51:30.089Z,11.57
2017-11-03T11:54:03.457Z,14.57
2017-11-03T11:56:37.556Z,12.70
2017-11-03T11:59:10.202Z,9.87
2017-11-03T12:01:43.554Z,11.00
2017-11-03T12:04:15.975Z,9.80
2017-11-03T12:06:48.447Z,9.90
2017-11-03T12:09:21.663Z,13.87
2017-11-03T12:11:54.233Z,11.07
2017-11-03T12:14:27.574Z,10.43
2017-11-03T12:17:00.954Z,11.77
2017-11-03T12:19:35.034Z,11.77
2017-11-03T12:22:07.594Z,9.43
2017-11-03T12:24:41.727Z,10.00
2017-11-03T12:27:14.257Z,10.30
2017-11-03T12:29:47.623Z,9.27
2017-11-03T12:32:21.699Z,7.00
2017-11-03T12:34:54.356Z,8.00
2017-11-03T12:37:27.660Z,10.60
2017-11-03T12:40:00.280Z,11.87
2017-11-03T12:42:33.562Z,11.10
2017-11-03T12:45:06.914Z,10.60
2017-11-03T12:47:40.211Z,11.50
2017-11-03T12:50:12.628Z,9.47
2017-11-03T12:52:46.732Z,11.80
2017-11-03T12:55:19.989Z,9.33
2017-11-03T12:57:53.969Z,8.50
2017-11-03T13:00:27.309Z,10.00
2017-11-03T13:03:00.545Z,10.60
2017-11-03T13:05:33.963Z,10.87
2017-11-03T13:08:08.124Z,12.97
2017-11-03T13:10:42.185Z,8.67
2017-11-03T13:13:15.574Z,10.70
2017-11-03T13:15:48.246Z,9.57
2017-11-03T13:18:21.545Z,10.50
2017-11-03T13:20:54.980Z,11.70
2017-11-03T13:23:29.054Z,8.70
2017-11-03T13:26:01.698Z,12.87
2017-11-03T13:28:35.905Z,11.60
2017-11-03T13:31:08.976Z,12.47
2017-11-03T13:33:43.031Z,13.03
2017-11-03T13:36:15.870Z,11.13
2017-11-03T13:38:49.175Z,13.03
2017-11-03T13:41:23.267Z,14.03
2017-11-03T13:43:56.394Z,12.90
2017-11-03T13:46:29.046Z,14.03
2017-11-03T13:49:02.386Z,13.20
2017-11-03T13:51:35.750Z,11.73
2017-11-03T13:54:09.158Z,15.30
2017-11-03T13:56:42.324Z,12.50
2017-11-03T13:59:15.459Z,11.20
2017-11-03T14:01:48.769Z,11.93
2017-11-03T14:04:21.348Z,13.20
2017-11-03T14:06:54.783Z,13.07
2017-11-03T14:09:27.478Z,9.17
2017-11-03T14:12:00.706Z,12.50
2017-11-03T14:14:33.251Z,14.67
2017-11-03T14:17:06.489Z,12.03
2017-11-03T14:19:39.693Z,10.93
2017-11-03T14:22:12.138Z,12.00
2017-11-03T14:24:45.326Z,10.93
2017-11-03T14:27:20.340Z,11.67
2017-11-03T14:29:53.073Z,11.43
2017-11-03T14:32:27.100Z,11.70
2017-11-03T14:34:59.788Z,12.17
2017-11-03T14:37:32.257Z,10.43
2017-11-03T14:40:05.457Z,11.90
2017-11-03T14:42:39.556Z,10.73
2017-11-03T14:45:12.130Z,10.60
2017-11-03T14:47:44.669Z,11.40
2017-11-03T14:50:17.877Z,10.33
2017-11-03T14:52:51.277Z,11.00
2017-11-03T14:55:24.502Z,11.40
2017-11-03T14:57:57.881Z,10.90
2017-11-03T15:00:30.924Z,10.20
2017-11-03T15:03:04.956Z,10.87
2017-11-03T15:05:37.411Z,8.50
2017-11-03T15:08:09.830Z,8.10
2017-11-03T15:10:43.096Z,8.43
2017-11-03T15:13:16.435Z,8.03
2017-11-03T15:15:48.805Z,10.57
2017-11-03T15:18:22.085Z,11.53
2017-11-03T15:20:56.104Z,11.10
2017-11-03T15:23:28.556Z,9.70
2017-11-03T15:26:02.686Z,11.20
2017-11-03T15:28:36.088Z,7.90
2017-11-03T15:31:08.641Z,9.70
2017-11-03T15:33:41.260Z,7.87
2017-11-03T15:36:14.439Z,7.77
2017-11-03T15:38:47.715Z,6.83
2017-11-03T15:41:20.966Z,6.37
2017-11-03T15:43:53.373Z,6.93
2017-11-03T15:46:25.760Z,6.40
2017-11-03T15:48:59.197Z,7.70
2017-11-03T15:51:33.147Z,11.10
2017-11-03T15:54:05.884Z,8.17
2017-11-03T15:56:39.250Z,8.23
2017-11-03T15:59:12.545Z,7.80
2017-11-03T16:01:45.798Z,8.10
2017-11-03T16:04:19.102Z,8.60
2017-11-03T16:06:52.024Z,9.13
2017-11-03T16:09:25.435Z,9.80
2017-11-03T16:11:58.760Z,10.77
2017-11-03T16:14:31.478Z,8.90
2017-11-03T16:17:05.496Z,10.80
2017-11-03T16:19:38.033Z,8.60
2017-11-03T16:22:11.497Z,9.43
2017-11-03T16:24:43.873Z,9.57
2017-11-03T16:27:17.183Z,8.60
2017-11-03T16:29:50.501Z,9.67
2017-11-03T16:32:23.720Z,8.67
2017-11-03T16:34:57.024Z,9.43
2017-11-03T16:37:29.594Z,8.10
2017-11-03T16:40:02.949Z,10.10
2017-11-03T16:42:36.155Z,8.97
2017-11-03T16:45:08.600Z,8.63
2017-11-03T16:47:41.033Z,9.63
2017-11-03T16:50:13.506Z,9.80
2017-11-03T16:52:47.386Z,10.63
2017-11-03T16:55:20.128Z,11.20
2017-11-03T16:57:53.273Z,8.87
2017-11-03T17:00:28.236Z,9.10
2017-11-03T17:03:00.933Z,9.77
2017-11-03T17:05:34.237Z,9.67
2017-11-03T17:08:07.378Z,9.30
2017-11-03T17:10:40.015Z,10.47
2017-11-03T17:13:13.954Z,10.77
2017-11-03T17:15:46.517Z,11.50
2017-11-03T17:18:19.657Z,10.83
2017-11-03T17:20:52.257Z,10.33
2017-11-03T17:23:26.288Z,12.53
2017-11-03T17:25:58.807Z,12.77
2017-11-03T17:28:32.153Z,10.57
2017-11-03T17:31:05.385Z,14.07
2017-11-03T17:33:38.662Z,11.13
2017-11-03T17:36:11.987Z,14.17
2017-11-03T17:38:45.206Z,12.40
2017-11-03T17:41:17.711Z,12.03
2017-11-03T17:43:51.003Z,15.23
2017-11-03T17:46:24.312Z,12.40
2017-11-03T17:48:57.516Z,14.17
2017-11-03T17:51:31.623Z,13.10
2017-11-03T17:54:04.086Z,13.03
2017-11-03T17:56:37.355Z,14.10
2017-11-03T17:59:11.433Z,14.00
2017-11-03T18:01:43.959Z,13.53
2017-11-03T18:04:17.886Z,14.20
2017-11-03T18:06:50.507Z,15.50
2017-11-03T18:09:24.799Z,14.33
2017-11-03T18:11:58.406Z,15.37
2017-11-03T18:14:31.745Z,16.13
2017-11-03T18:17:05.040Z,17.23
2017-11-03T18:19:39.287Z,15.63
2017-11-03T18:22:13.647Z,14.17
2017-11-03T18:24:46.991Z,14.33
2017-11-03T18:27:20.384Z,16.17
2017-11-03T18:29:54.451Z,15.07
2017-11-03T18:32:28.588Z,12.03
2017-11-03T18:35:01.407Z,17.67
2017-11-03T18:37:34.557Z,17.87
2017-11-03T18:40:08.156Z,20.23
2017-11-03T18:42:41.410Z,15.70
2017-11-03T18:45:15.057Z,18.97
2017-11-03T18:47:48.455Z,19.53
2017-11-03T18:50:22.240Z,17.57
2017-11-03T18:52:56.828Z,19.17
2017-11-03T18:55:31.016Z,20.57
2017-11-03T18:58:05.411Z,19.33
2017-11-03T19:00:39.957Z,17.47
2017-11-03T19:03:14.493Z,17.60
2017-11-03T19:05:55.306Z,19.00
2017-11-03T19:08:31.441Z,19.30
2017-11-03T19:11:06.234Z,19.40
2017-11-03T19:13:41.465Z,15.70
2017-11-03T19:16:16.686Z,16.93
2017-11-03T19:18:52.256Z,20.00
2017-11-03T19:21:26.685Z,18.27
2017-11-03T19:24:01.125Z,16.63
2017-11-03T19:26:36.119Z,17.33
2017-11-03T19:29:11.274Z,18.93
2017-11-03T19:31:46.152Z,15.33
2017-11-03T19:34:20.951Z,16.80
2017-11-03T19:36:55.620Z,17.37
2017-11-03T19:39:30.983Z,16.27
2017-11-03T19:42:06.189Z,17.97
2017-11-03T19:44:40.687Z,17.93
2017-11-03T19:47:14.892Z,20.97
2017-11-03T19:49:49.416Z,20.17
2017-11-03T19:52:24.656Z,18.30
2017-11-03T19:54:59.242Z,20.33
2017-11-03T19:57:33.435Z,17.40
2017-11-03T20:00:07.945Z,17.93
2017-11-03T20:02:42.160Z,21.37
2017-11-03T20:05:16.528Z,17.93
2017-11-03T20:07:50.735Z,19.30
2017-11-03T20:10:25.054Z,19.80
2017-11-03T20:12:59.255Z,18.10
2017-11-03T20:15:33.630Z,18.57
2017-11-03T20:18:08.055Z,16.07
2017-11-03T20:20:43.293Z,17.13
2017-11-03T20:23:17.471Z,17.70
2017-11-03T20:25:51.820Z,17.67
2017-11-03T20:28:26.117Z,19.40
2017-11-03T20:31:01.016Z,16.83
2017-11-03T20:33:36.115Z,17.43
2017-11-03T20:36:11.669Z,18.40
2017-11-03T20:38:47.140Z,20.13
2017-11-03T20:41:21.569Z,18.00
2017-11-03T20:43:56.617Z,19.23
2017-11-03T20:46:31.335Z,20.20
2017-11-03T20:49:05.396Z,20.70
2017-11-03T20:51:39.701Z,20.00
2017-11-03T20:54:13.983Z,18.27
2017-11-03T20:56:48.395Z,18.17
2017-11-03T20:59:22.955Z,16.40
2017-11-03T21:01:57.907Z,18.43
2017-11-03T21:04:32.547Z,20.80
2017-11-03T21:07:07.658Z,17.50
2017-11-03T21:09:41.984Z,19.00
2017-11-03T21:12:16.362Z,22.07
2017-11-03T21:14:51.425Z,20.50
2017-11-03T21:17:25.937Z,20.33
2017-11-03T21:20:00.062Z,19.73
2017-11-03T21:22:34.547Z,19.03
2017-11-03T21:25:16.493Z,18.77
2017-11-03T21:27:51.864Z,22.20
2017-11-03T21:30:26.457Z,22.73
2017-11-03T21:33:01.014Z,17.83
2017-11-03T21:35:35.315Z,19.93
2017-11-03T21:38:10.515Z,17.90
2017-11-03T21:40:45.056Z,18.63
2017-11-03T21:43:20.194Z,21.13
2017-11-03T21:45:54.793Z,17.87
2017-11-03T21:48:29.113Z,17.13
2017-11-03T21:51:03.316Z,15.43
2017-11-03T21:53:37.705Z,17.60
2017-11-03T21:56:12.585Z,16.60
2017-11-03T21:58:47.265Z,17.87
2017-11-03T22:01:21.565Z,15.27
2017-11-03T22:03:56.224Z,13.77
2017-11-03T22:06:30.223Z,16.70
2017-11-03T22:09:04.969Z,19.10
2017-11-03T22:11:39.029Z,14.80
2017-11-03T22:14:20.580Z,12.73
2017-11-03T22:16:54.621Z,17.13
2017-11-03T22:19:28.932Z,13.70
2017-11-03T22:22:03.002Z,15.83
2017-11-03T22:24:37.360Z,11.50
2017-11-03T22:27:10.844Z,17.73
2017-11-03T22:29:44.971Z,11.63
2017-11-03T22:32:18.313Z,13.73
2017-11-03T22:34:51.750Z,12.70
2017-11-03T22:37:24.919Z,17.13
2017-11-03T22:39:57.351Z,19.70
2017-11-03T22:42:30.544Z,16.03
2017-11-03T22:45:03.841Z,14.67
2017-11-03T22:47:36.211Z,29.00
2017-11-03T22:50:08.810Z,14.80
2017-11-03T22:52:42.079Z,12.80
2017-11-03T22:55:14.531Z,10.63
2017-11-03T22:57:47.742Z,12.20
2017-11-03T23:00:20.317Z,14.63
2017-11-03T23:02:54.173Z,14.50
2017-11-03T23:05:26.784Z,17.07
2017-11-03T23:08:00.750Z,16.70
2017-11-03T23:10:34.089Z,14.80
2017-11-03T23:13:06.720Z,12.80
2017-11-03T23:15:39.158Z,11.40
2017-11-03T23:18:12.344Z,10.50
2017-11-03T23:20:45.555Z,16.60
2017-11-03T23:23:18.766Z,9.83
2017-11-03T23:25:51.420Z,10.63
2017-11-03T23:28:24.721Z,10.03
2017-11-03T23:30:57.985Z,13.27
2017-11-03T23:33:31.184Z,14.37
2017-11-03T23:36:05.222Z,8.00
2017-11-03T23:38:38.409Z,10.53
2017-11-03T23:41:10.938Z,14.13
2017-11-03T23:43:44.189Z,11.00
2017-11-03T23:46:16.649Z,10.50
2017-11-03T23:48:49.822Z,10.80
2017-11-03T23:51:22.269Z,12.60
2017-11-03T23:53:55.482Z,9.37
2017-11-03T23:56:27.896Z,10.13
2017-11-03T23:59:00.349Z,9.83
